Chili, WI (54420)

6:58 AM CDT on July 27, 2016 (GMT -0500)
Marshfield Municipal | | Change Station

Elev 1276 ft 44.64 °N, 90.19 °W | Updated 4 minutes ago

Clear
Clear
69 °F
Feels Like 69 °F
N
4
Wind Variable Wind from West

Today
High -- | Low -- °F
--% Chance of Precip.
Yesterday
High -- | Low -- °F
Precip. -- in
Pressure 29.99 in
Visibility 6.0 miles
Clouds Clear
Dew Point 66 °F
Humidity 90%
Rainfall 0.00 in
Snow Depth Not available.
5:42 AM 8:31 PM
Last Quarter, 44% visible
METAR KMFI 271154Z AUTO 27003KT 6SM BR CLR 21/19 A3001 RMK AO2 SLP155 T02060189 10228 20189 51005
Pressure 29.99 in
Visibility 6.0 miles
Clouds Clear
Dew Point 66 °F
Humidity 90%
Rainfall 0.00 in
Snow Depth Not available.
5:42 AM 8:31 PM
Last Quarter, 44% visible
METAR KMFI 271154Z AUTO 27003KT 6SM BR CLR 21/19 A3001 RMK AO2 SLP155 T02060189 10228 20189 51005

10-Day Weather Forecast

Almanac

Astronomy

Jul. 27, 2016 Rise Set
Actual Time
Civil Twilight
Nautical Twilight
Astronomical Twilight
Moon
Length of Visible Light
Length of Day
Tomorrow will be .
, % of the Moon is Illuminated

Today's Extremes

State Highs State Lows

Community

WunderPhotos

Upload Photos

1,927,828 photos uploaded!

WunderBlog® & News

Nearby

Air Quality

  Air Quality AQ Index Pollutant
Not available.

Snow Depth

Station Depth Elevation

Earthquake Activity

City Distance Mag. Time & Date
Minimum magnitude displayed is 2.5.

Coastal Water Temperatures

Place Temperature

Stations

Nearby Weather Stations

Station Location Temp. Windchill Dew Point Humidity Wind Precip. Elev Updated Type
                   

Watches & Warnings

There are currently no watches in effect.